Time;durP1;ratioP1;P1;durP2;ratioP2;P2;SDS_P1;SDS_P2;PMS_P1;PMS_P2;Temp;Humidity;BMP_temperature;BMP_pressure;BME280_temperature;BME280_humidity;BME280_pressure;Samples;Min_cycle;Max_cycle;Signal;HPM_P1;HPM_P2
2022/06/22 00:02:21;;;;;;;2.20;2.10;;;;;;;15.83;58.14;100551.00;5025287;28;20036;-22
2022/06/22 00:04:51;;;;;;;2.30;2.10;;;;;;;15.85;58.10;100551.81;5039677;28;20056;-22
2022/06/22 00:07:19;;;;;;;3.03;2.60;;;;;;;15.82;58.00;100552.81;5041778;28;20027;-22
2022/06/22 00:09:46;;;;;;;2.75;2.40;;;;;;;15.81;58.22;100543.09;5040448;28;20031;-22
2022/06/22 00:12:27;;;;;;;3.65;2.70;;;;;;;15.75;58.13;100530.88;5060844;28;20028;-22
2022/06/22 00:14:54;;;;;;;2.55;2.38;;;;;;;15.73;58.03;100532.69;5042789;28;20061;-22
2022/06/22 00:17:23;;;;;;;2.63;2.42;;;;;;;15.71;58.12;100528.34;5040680;28;20162;-23
2022/06/22 00:19:49;;;;;;;2.28;2.08;;;;;;;15.70;58.07;100529.28;5064655;28;20060;-22
2022/06/22 00:22:20;;;;;;;2.50;2.40;;;;;;;15.61;58.59;100517.16;5060698;28;20099;-22
2022/06/22 00:24:46;;;;;;;3.42;2.53;;;;;;;15.60;58.16;100512.72;5063038;28;20040;-23
2022/06/22 00:27:19;;;;;;;2.30;2.20;;;;;;;15.59;58.22;100519.84;5061194;28;20020;-22
2022/06/22 00:29:46;;;;;;;2.10;2.00;;;;;;;15.54;58.09;100520.94;5057088;28;20023;-22
2022/06/22 00:32:25;;;;;;;2.17;2.00;;;;;;;15.48;58.04;100528.16;5062197;28;20032;-22
2022/06/22 00:34:51;;;;;;;2.42;2.17;;;;;;;15.46;58.24;100522.03;5060859;28;20138;-22
2022/06/22 00:37:25;;;;;;;2.50;2.30;;;;;;;15.41;57.80;100526.66;5040865;28;20547;-22
2022/06/22 00:39:54;;;;;;;2.60;2.22;;;;;;;15.36;58.19;100531.22;5059210;28;20570;-22
2022/06/22 00:42:29;;;;;;;2.88;2.60;;;;;;;15.32;57.93;100533.13;5046998;28;20024;-22
2022/06/22 00:45:08;;;;;;;2.55;2.35;;;;;;;15.29;58.38;100532.31;5038381;28;20092;-22
2022/06/22 00:47:43;;;;;;;2.53;2.33;;;;;;;15.24;57.82;100528.03;5029784;28;20441;-22
2022/06/22 00:50:18;;;;;;;2.40;2.20;;;;;;;15.14;58.02;100519.47;5044539;28;20029;-22
2022/06/22 00:52:47;;;;;;;2.28;2.17;;;;;;;15.18;58.06;100528.22;5045369;28;20024;-22
2022/06/22 00:55:32;;;;;;;3.42;2.75;;;;;;;15.09;57.87;100525.84;5061543;28;20388;-22
2022/06/22 00:58:32;;;;;;;2.50;2.20;;;;;;;15.03;58.36;100524.25;5045091;28;20025;-22
2022/06/22 01:01:20;;;;;;;2.63;2.42;;;;;;;14.96;58.25;100518.25;5043619;28;21336;-22
2022/06/22 01:04:01;;;;;;;3.30;2.60;;;;;;;14.92;58.26;100529.00;5043360;28;20028;-22
2022/06/22 01:06:46;;;;;;;2.58;2.38;;;;;;;14.90;58.46;100517.56;5041159;28;20029;-22
2022/06/22 01:09:42;;;;;;;2.97;2.78;;;;;;;14.89;57.94;100506.06;5061189;28;20074;-22
2022/06/22 01:12:17;;;;;;;3.95;2.40;;;;;;;14.78;58.17;100502.88;5040191;28;20100;-22
2022/06/22 01:15:01;;;;;;;2.95;2.63;;;;;;;14.77;58.31;100507.28;5042647;28;20445;-22
2022/06/22 01:17:32;;;;;;;2.70;2.50;;;;;;;14.75;58.32;100496.69;5022935;28;20098;-22
2022/06/22 01:20:06;;;;;;;8.10;3.00;;;;;;;14.69;58.26;100496.00;5041963;28;20029;-22
2022/06/22 01:22:46;;;;;;;3.58;2.25;;;;;;;14.67;58.18;100490.72;5044543;28;20025;-22
2022/06/22 01:25:31;;;;;;;2.67;2.42;;;;;;;14.65;58.47;100491.69;5065562;28;20124;-22
2022/06/22 01:27:57;;;;;;;2.38;2.20;;;;;;;14.63;58.17;100486.44;5046732;28;20539;-22
2022/06/22 01:30:23;;;;;;;2.38;2.17;;;;;;;14.57;57.94;100490.13;5042674;28;20171;-22
2022/06/22 01:32:51;;;;;;;2.80;2.58;;;;;;;14.54;58.19;100492.03;5054182;28;20499;-22
2022/06/22 01:35:25;;;;;;;2.70;2.50;;;;;;;14.47;58.63;100484.22;5054438;28;20105;-22
2022/06/22 01:37:51;;;;;;;3.28;2.88;;;;;;;14.47;58.59;100491.31;5068396;28;20032;-22
2022/06/22 01:40:21;;;;;;;2.35;2.15;;;;;;;14.46;58.60;100485.16;5046022;28;20037;-22
2022/06/22 01:42:57;;;;;;;2.78;2.38;;;;;;;14.42;58.48;100480.84;5060502;28;20024;-22
2022/06/22 01:45:36;;;;;;;2.53;2.33;;;;;;;14.40;58.04;100485.31;5036125;28;20032;-22
2022/06/22 01:48:39;;;;;;;3.08;2.45;;;;;;;14.31;58.16;100480.28;5050765;28;20057;-22
2022/06/22 01:51:13;;;;;;;3.03;2.63;;;;;;;14.34;58.29;100480.19;4959059;28;20039;-22
2022/06/22 01:54:08;;;;;;;2.72;2.58;;;;;;;14.28;58.64;100477.69;5036052;28;20051;-22
2022/06/22 01:56:43;;;;;;;2.80;2.60;;;;;;;14.21;58.53;100469.91;5036036;28;20086;-22
2022/06/22 01:59:16;;;;;;;2.72;2.53;;;;;;;14.14;58.64;100478.94;5068010;28;20029;-22
2022/06/22 02:01:51;;;;;;;2.92;2.72;;;;;;;14.13;58.45;100479.84;5066147;28;21813;-22
2022/06/22 02:04:25;;;;;;;3.80;3.40;;;;;;;14.05;58.34;100479.19;5029175;28;20128;-22
2022/06/22 02:10:26;;;;;;;2.90;2.65;;;;;;;14.02;58.78;100468.66;5054922;28;20396;-22
2022/06/22 02:13:07;;;;;;;2.70;2.50;;;;;;;13.94;58.93;100472.38;5068701;28;20032;-23
2022/06/22 02:15:39;;;;;;;3.13;2.83;;;;;;;13.92;58.73;100476.88;5067782;28;20244;-22
2022/06/22 02:18:10;;;;;;;2.83;2.63;;;;;;;13.87;59.00;100462.84;5051993;28;20426;-22
2022/06/22 02:20:38;;;;;;;5.40;3.35;;;;;;;13.86;58.86;100469.06;5055262;28;20024;-22
2022/06/22 02:23:16;;;;;;;3.67;3.30;;;;;;;13.84;59.19;100463.81;5067821;28;20094;-22
2022/06/22 02:25:55;;;;;;;4.05;2.95;;;;;;;13.82;59.05;100462.13;5043470;28;20016;-22
2022/06/22 02:28:21;;;;;;;3.30;3.00;;;;;;;13.78;58.80;100460.44;5065207;28;20024;-22
2022/06/22 02:30:47;;;;;;;3.00;2.70;;;;;;;13.78;58.73;100461.34;5064615;28;20037;-22
2022/06/22 02:33:12;;;;;;;3.17;2.85;;;;;;;13.72;59.05;100461.47;5067614;28;20123;-22
2022/06/22 02:35:40;;;;;;;3.33;2.88;;;;;;;13.67;59.19;100453.63;5066303;28;20070;-22
2022/06/22 02:38:08;;;;;;;3.38;2.80;;;;;;;13.71;59.04;100455.31;5050744;28;20031;-22
2022/06/22 02:44:29;;;;;;;3.70;3.00;;;;;;;13.67;59.04;100458.94;5042997;28;20039;-22
2022/06/22 02:46:11;;;;;;;3.28;2.90;;;;;;;13.56;59.19;100450.41;5047614;28;20807;-22
2022/06/22 02:48:39;;;;;;;3.60;3.03;;;;;;;13.49;58.99;100448.81;5061801;28;20030;-22
2022/06/22 02:51:14;;;;;;;3.25;2.75;;;;;;;13.41;58.92;100447.19;5064139;28;20404;-22
2022/06/22 02:53:40;;;;;;;3.40;2.97;;;;;;;13.39;59.35;100445.47;5045707;28;20035;-22
2022/06/22 02:56:12;;;;;;;2.95;2.70;;;;;;;13.39;59.06;100441.06;5064632;28;20070;-21
2022/06/22 02:58:38;;;;;;;4.20;3.00;;;;;;;13.35;59.41;100452.66;5062920;28;20070;-22
2022/06/22 03:01:13;;;;;;;3.47;3.17;;;;;;;13.32;59.28;100458.91;5058262;28;20059;-22
2022/06/22 03:03:46;;;;;;;5.72;3.00;;;;;;;13.29;59.23;100452.78;5045546;28;20052;-21
2022/06/22 03:06:13;;;;;;;4.65;3.60;;;;;;;13.25;59.05;100462.59;5058445;28;20655;-22
2022/06/22 03:08:39;;;;;;;4.22;3.33;;;;;;;13.21;59.45;100459.13;5063249;28;20110;-21
2022/06/22 03:11:06;;;;;;;6.18;3.38;;;;;;;13.20;59.44;100456.50;5057957;28;20387;-22
2022/06/22 03:13:38;;;;;;;3.22;2.92;;;;;;;13.17;59.36;100446.88;5061493;28;20020;-22
2022/06/22 03:16:03;;;;;;;3.65;3.35;;;;;;;13.18;59.42;100445.94;5055970;28;20035;-22
2022/06/22 03:18:30;;;;;;;4.30;3.20;;;;;;;13.14;59.46;100446.94;5060628;28;20013;-22
2022/06/22 03:21:06;;;;;;;4.97;3.42;;;;;;;13.14;59.42;100433.69;5060520;28;20762;-22
2022/06/22 03:23:36;;;;;;;3.72;3.40;;;;;;;13.11;59.46;100443.50;5045189;28;20020;-22
2022/06/22 03:26:13;;;;;;;4.55;3.97;;;;;;;13.09;59.37;100440.88;5043828;28;20033;-22
2022/06/22 03:28:42;;;;;;;3.97;3.55;;;;;;;13.07;59.43;100435.63;5055848;28;20380;-22
2022/06/22 03:31:16;;;;;;;4.63;4.22;;;;;;;13.05;59.44;100428.63;5039358;28;20476;-22
2022/06/22 03:33:48;;;;;;;4.13;3.72;;;;;;;13.07;59.67;100429.44;5050851;28;20494;-22
2022/06/22 03:36:18;;;;;;;3.83;3.53;;;;;;;13.05;59.86;100428.63;5045076;28;20349;-22
2022/06/22 03:38:48;;;;;;;3.92;3.60;;;;;;;13.05;59.43;100420.69;5060807;28;20484;-21
2022/06/22 03:41:19;;;;;;;5.78;3.97;;;;;;;13.02;59.72;100421.63;5051968;28;20078;-22
2022/06/22 03:44:04;;;;;;;6.22;4.40;;;;;;;13.03;60.09;100425.13;5041519;28;20082;-22
2022/06/22 03:46:46;;;;;;;7.18;4.43;;;;;;;13.03;60.24;100431.31;5065279;28;20024;-22
2022/06/22 03:49:20;;;;;;;4.45;4.00;;;;;;;13.03;59.96;100422.50;5067045;28;20053;-22
2022/06/22 03:51:52;;;;;;;4.55;4.03;;;;;;;13.01;60.08;100426.97;5060357;28;20029;-22
2022/06/22 03:54:28;;;;;;;3.60;3.30;;;;;;;13.02;60.17;100431.34;5061170;28;20089;-22
2022/06/22 03:56:58;;;;;;;4.32;3.92;;;;;;;13.02;59.87;100434.88;5060615;28;20033;-22
2022/06/22 03:59:24;;;;;;;3.75;3.45;;;;;;;13.03;59.70;100439.25;5044053;28;20043;-23
2022/06/22 04:01:50;;;;;;;6.78;4.15;;;;;;;13.00;59.99;100441.97;5042729;28;20817;-22
2022/06/22 04:04:15;;;;;;;4.53;3.80;;;;;;;13.03;59.64;100431.31;5066357;28;20383;-22
2022/06/22 04:06:45;;;;;;;4.38;3.97;;;;;;;13.07;59.73;100426.81;5048406;28;20029;-22
2022/06/22 04:09:16;;;;;;;5.55;3.95;;;;;;;13.04;59.69;100427.75;5046989;28;20465;-21
2022/06/22 04:11:47;;;;;;;;;;;;;;;13.16;60.91;100436.31;5049288;28;20541;-21
2022/06/22 04:14:27;;;;;;;4.20;3.88;;;;;;;13.21;60.58;100440.59;5051380;28;19924;-22
2022/06/22 04:16:55;;;;;;;4.93;3.60;;;;;;;13.24;60.40;100438.78;5044907;28;20081;-21
2022/06/22 04:19:25;;;;;;;3.80;3.50;;;;;;;13.17;59.76;100440.72;5049564;28;20066;-22
2022/06/22 04:21:56;;;;;;;6.10;4.18;;;;;;;13.20;60.22;100444.16;5045285;28;20099;-21
2022/06/22 04:24:25;;;;;;;4.40;4.00;;;;;;;13.34;60.50;100456.22;5028778;28;20065;-21
2022/06/22 04:26:55;;;;;;;7.72;4.25;;;;;;;13.39;60.26;100454.31;5048885;28;20061;-21
2022/06/22 04:29:34;;;;;;;6.85;4.13;;;;;;;13.41;60.28;100436.59;5060863;28;20025;-21
2022/06/22 04:32:09;;;;;;;4.18;3.88;;;;;;;13.44;60.70;100441.81;5043115;28;20397;-21
2022/06/22 04:34:43;;;;;;;3.88;3.42;;;;;;;13.50;60.50;100439.97;5043181;28;20484;-21
2022/06/22 04:37:19;;;;;;;4.22;3.70;;;;;;;13.51;60.58;100442.59;5041086;28;20029;-21
2022/06/22 04:39:47;;;;;;;4.15;3.78;;;;;;;13.54;61.09;100437.19;5058374;28;20033;-21
2022/06/22 04:42:12;;;;;;;4.13;3.83;;;;;;;13.59;60.79;100445.03;5059061;28;20032;-21
2022/06/22 04:44:43;;;;;;;4.20;3.90;;;;;;;13.61;61.01;100451.16;5063545;28;20082;-21
2022/06/22 04:47:20;;;;;;;4.47;3.85;;;;;;;13.67;60.99;100455.44;5061369;28;20032;-21
2022/06/22 04:49:55;;;;;;;4.13;3.72;;;;;;;13.76;61.23;100456.97;5058736;28;20064;-21
2022/06/22 04:52:21;;;;;;;4.07;3.60;;;;;;;13.73;60.71;100466.75;5059637;28;20017;-21
2022/06/22 04:54:50;;;;;;;8.27;4.30;;;;;;;13.76;61.23;100471.09;5059065;28;20034;-21
2022/06/22 04:57:27;;;;;;;4.05;3.65;;;;;;;13.79;61.90;100478.09;5039494;28;20025;-21
2022/06/22 04:59:53;;;;;;;6.45;4.00;;;;;;;13.84;61.22;100474.41;5044519;28;20028;-21
2022/06/22 05:02:20;;;;;;;4.55;3.60;;;;;;;13.90;60.98;100476.03;5040727;28;20020;-21
2022/06/22 05:04:51;;;;;;;4.95;4.53;;;;;;;13.97;62.08;100480.25;5040908;28;20115;-21
2022/06/22 05:07:26;;;;;;;4.25;3.95;;;;;;;14.03;60.99;100481.00;5044171;28;20042;-21
2022/06/22 05:10:02;;;;;;;4.03;3.72;;;;;;;14.10;61.23;100483.47;5056487;28;20058;-22
2022/06/22 05:12:32;;;;;;;5.70;4.22;;;;;;;14.17;61.86;100480.66;5058208;28;20029;-21
2022/06/22 05:15:00;;;;;;;5.05;3.80;;;;;;;14.26;61.01;100476.84;5041878;28;20066;-22
2022/06/22 05:17:29;;;;;;;4.88;3.60;;;;;;;14.33;60.80;100478.44;5046462;28;20031;-22
2022/06/22 05:20:15;;;;;;;4.28;3.80;;;;;;;14.40;60.16;100481.81;5057971;28;20043;-21
2022/06/22 05:22:41;;;;;;;5.00;3.80;;;;;;;14.47;60.62;100486.00;5058450;28;20495;-22
2022/06/22 05:25:10;;;;;;;5.22;4.15;;;;;;;14.50;61.32;100489.44;5035629;28;20017;-22
2022/06/22 05:28:06;;;;;;;6.93;4.20;;;;;;;14.60;61.56;100499.78;5023188;28;20017;-22
2022/06/22 05:30:36;;;;;;;4.32;4.03;;;;;;;14.68;62.60;100497.81;5042675;28;20028;-22
2022/06/22 05:33:06;;;;;;;5.07;4.63;;;;;;;14.73;61.94;100487.03;5064840;28;20074;-22
2022/06/22 05:35:35;;;;;;;4.97;4.57;;;;;;;14.81;60.79;100489.50;5039442;28;20455;-22
2022/06/22 05:38:02;;;;;;;4.50;3.97;;;;;;;14.88;60.63;100493.72;5041838;28;20085;-22
2022/06/22 05:40:30;;;;;;;5.47;4.80;;;;;;;14.96;60.47;100499.66;5043833;28;20025;-22
2022/06/22 05:42:56;;;;;;;5.57;3.75;;;;;;;15.03;61.12;100494.19;5041238;28;20021;-22
2022/06/22 05:45:24;;;;;;;4.63;4.18;;;;;;;15.10;60.21;100488.59;5044964;28;20025;-22
2022/06/22 05:47:51;;;;;;;4.82;4.22;;;;;;;15.19;60.97;100495.44;5059396;28;20112;-22
2022/06/22 05:50:36;;;;;;;5.55;4.40;;;;;;;15.29;61.61;100495.13;5061135;28;20029;-21
2022/06/22 05:53:20;;;;;;;5.35;4.15;;;;;;;15.41;61.20;100494.75;5038943;28;20124;-22
2022/06/22 05:55:57;;;;;;;5.32;4.90;;;;;;;15.49;61.50;100494.50;5049050;28;20020;-22
2022/06/22 05:59:02;;;;;;;7.82;4.88;;;;;;;15.59;61.91;100490.63;5043148;28;20074;-22
2022/06/22 06:01:39;;;;;;;5.30;4.80;;;;;;;15.73;60.92;100492.81;5021757;28;20052;-22
2022/06/22 06:04:14;;;;;;;5.28;4.78;;;;;;;15.84;60.73;100496.91;5059211;28;20028;-22
2022/06/22 06:06:41;;;;;;;5.70;5.20;;;;;;;15.93;61.47;100495.72;5061137;28;20032;-22
2022/06/22 06:09:12;;;;;;;5.90;5.32;;;;;;;16.02;60.87;100477.69;5057938;28;20036;-22
2022/06/22 06:11:45;;;;;;;6.75;5.10;;;;;;;16.10;60.50;100472.09;5057841;28;20031;-22
2022/06/22 06:14:18;;;;;;;5.88;5.28;;;;;;;16.23;60.98;100487.59;5059079;28;20029;-22
2022/06/22 06:16:52;;;;;;;7.03;6.32;;;;;;;16.34;61.04;100484.56;5045036;28;20024;-23
2022/06/22 06:19:21;;;;;;;6.45;5.28;;;;;;;16.44;60.67;100495.75;5061897;28;20024;-23
2022/06/22 06:21:49;;;;;;;5.10;4.63;;;;;;;16.57;60.71;100490.84;5040516;28;20056;-22
2022/06/22 06:24:19;;;;;;;6.65;5.50;;;;;;;16.71;60.80;100508.97;5049819;28;20024;-22
2022/06/22 06:29:56;;;;;;;6.38;5.80;;;;;;;16.94;60.08;100492.09;5051481;28;20074;-23
2022/06/22 06:32:31;;;;;;;7.50;4.97;;;;;;;17.13;60.04;100488.72;5037284;28;20024;-23
2022/06/22 06:35:02;;;;;;;11.70;5.88;;;;;;;17.24;59.76;100481.19;5042511;28;20584;-23
2022/06/22 06:38:04;;;;;;;5.05;4.55;;;;;;;17.35;59.36;100471.88;5044185;28;20028;-23
2022/06/22 06:41:02;;;;;;;5.65;5.15;;;;;;;17.53;59.37;100483.59;5058613;28;20025;-23
2022/06/22 06:43:48;;;;;;;5.13;4.65;;;;;;;17.68;58.85;100484.75;5065854;28;20904;-23
2022/06/22 06:46:23;;;;;;;5.82;4.85;;;;;;;17.81;58.50;100491.31;5068107;28;20052;-23
2022/06/22 06:48:53;;;;;;;5.47;4.25;;;;;;;17.89;58.04;100488.31;5067502;28;20020;-23
2022/06/22 06:51:20;;;;;;;5.45;4.07;;;;;;;18.02;57.92;100488.66;5067515;28;20500;-23
2022/06/22 06:53:55;;;;;;;5.70;3.92;;;;;;;18.18;57.84;100490.69;5051968;28;20046;-23
2022/06/22 06:56:28;;;;;;;7.30;3.55;;;;;;;18.32;57.49;100487.41;5051398;28;20379;-23
2022/06/22 06:58:58;;;;;;;5.13;4.10;;;;;;;18.42;57.25;100488.72;5034796;28;20033;-23
2022/06/22 07:01:27;;;;;;;4.53;3.97;;;;;;;18.58;57.24;100488.88;5066627;28;20071;-23
2022/06/22 07:03:57;;;;;;;3.60;3.30;;;;;;;18.79;57.09;100487.97;5058543;28;20032;-23
2022/06/22 07:06:22;;;;;;;3.85;3.50;;;;;;;18.95;57.02;100494.34;5056247;28;20044;-23
2022/06/22 07:08:52;;;;;;;4.47;3.60;;;;;;;19.03;56.87;100488.63;5048885;28;20716;-22
2022/06/22 07:11:33;;;;;;;4.53;4.07;;;;;;;19.16;56.74;100496.06;5034915;28;20028;-23
2022/06/22 07:14:12;;;;;;;5.25;4.25;;;;;;;19.29;56.50;100502.56;5046440;28;20295;-23
2022/06/22 07:16:38;;;;;;;5.00;4.10;;;;;;;19.44;56.53;100497.41;5066160;28;20242;-23
2022/06/22 07:19:16;;;;;;;7.90;4.53;;;;;;;19.57;56.51;100495.00;5035117;28;20035;-22
2022/06/22 07:21:50;;;;;;;4.43;4.03;;;;;;;19.69;56.43;100501.53;5044856;28;20024;-22
2022/06/22 07:24:23;;;;;;;8.23;4.68;;;;;;;19.80;55.95;100495.63;5037912;28;20021;-23
2022/06/22 07:27:10;;;;;;;6.60;3.83;;;;;;;19.93;55.50;100504.78;5042396;28;20040;-23
2022/06/22 07:29:41;;;;;;;4.30;3.92;;;;;;;20.09;55.60;100495.97;5047646;28;20029;-23
2022/06/22 07:32:33;;;;;;;5.28;4.40;;;;;;;20.25;55.88;100496.03;5060260;28;20160;-23
2022/06/22 07:35:15;;;;;;;4.28;3.78;;;;;;;20.36;55.25;100496.34;5040078;28;20029;-23
2022/06/22 07:37:45;;;;;;;4.10;3.60;;;;;;;20.47;54.60;100505.63;5062813;28;20215;-23
2022/06/22 07:40:17;;;;;;;5.43;3.63;;;;;;;20.59;54.61;100506.75;5059102;28;20032;-23
2022/06/22 07:42:45;;;;;;;4.07;3.67;;;;;;;20.74;54.57;100507.75;5044705;28;20031;-23
2022/06/22 07:45:17;;;;;;;4.03;3.63;;;;;;;20.86;54.22;100496.34;5061461;28;20451;-23
2022/06/22 07:48:05;;;;;;;4.82;4.00;;;;;;;20.99;54.06;100495.69;5061712;28;20418;-23
2022/06/22 07:50:34;;;;;;;4.70;3.25;;;;;;;21.08;53.92;100489.84;5061220;28;20472;-23
2022/06/22 07:53:20;;;;;;;4.85;4.00;;;;;;;21.22;53.91;100482.81;5057399;28;20248;-23
2022/06/22 07:56:26;;;;;;;4.13;3.47;;;;;;;21.44;54.07;100470.84;5061151;28;20024;-23
2022/06/22 07:58:55;;;;;;;3.63;3.30;;;;;;;21.52;53.45;100468.56;5041451;28;20662;-23
2022/06/22 08:01:25;;;;;;;3.15;2.95;;;;;;;21.61;53.84;100465.34;5044286;28;20036;-23
2022/06/22 08:03:59;;;;;;;4.05;3.67;;;;;;;21.78;53.21;100452.78;5046820;28;20021;-23
2022/06/22 08:06:38;;;;;;;3.88;3.38;;;;;;;21.90;53.14;100456.53;5061959;28;20028;-23
2022/06/22 08:09:11;;;;;;;6.13;3.05;;;;;;;22.00;52.39;100463.06;5050156;28;20036;-23
2022/06/22 08:11:42;;;;;;;4.47;3.20;;;;;;;22.15;53.10;100455.88;5043319;28;20023;-23
2022/06/22 08:14:15;;;;;;;;;;;;;;;22.34;54.13;100460.13;5041943;28;20024;-23
2022/06/22 08:16:44;;;;;;;4.63;3.10;;;;;;;22.42;52.75;100467.72;5042750;28;20636;-22
2022/06/22 08:19:10;;;;;;;3.15;2.83;;;;;;;22.54;53.04;100463.41;5062999;28;20036;-23
2022/06/22 08:21:41;;;;;;;3.58;3.25;;;;;;;22.62;51.83;100454.88;5041187;28;20021;-22
2022/06/22 08:24:09;;;;;;;4.18;3.33;;;;;;;22.67;51.65;100447.38;5056281;28;20016;-22
2022/06/22 08:26:35;;;;;;;7.68;3.15;;;;;;;22.78;51.88;100446.69;5047498;28;20013;-22
2022/06/22 08:29:00;;;;;;;3.20;3.00;;;;;;;22.91;52.70;100438.69;5056566;28;20099;-22
2022/06/22 08:31:38;;;;;;;3.63;3.33;;;;;;;23.02;51.58;100443.38;5059336;28;20020;-22
2022/06/22 08:34:07;;;;;;;3.30;3.03;;;;;;;23.17;52.05;100439.66;5059634;28;20036;-23
2022/06/22 08:36:39;;;;;;;2.90;2.70;;;;;;;23.30;52.01;100434.34;5060797;28;20008;-22
2022/06/22 08:39:21;;;;;;;3.53;3.00;;;;;;;23.40;50.77;100440.00;5039362;28;20066;-22
2022/06/22 08:41:52;;;;;;;3.65;3.13;;;;;;;23.50;50.53;100429.47;5059675;28;20021;-22
2022/06/22 08:44:29;;;;;;;;;;;;;;;23.58;49.47;100432.50;5044583;28;20037;-22
2022/06/22 08:47:17;;;;;;;4.35;3.17;;;;;;;23.72;49.88;100441.47;5060044;28;20295;-23
2022/06/22 08:50:03;;;;;;;3.97;3.50;;;;;;;23.92;49.77;100445.47;5055463;28;20047;-23
2022/06/22 08:52:53;;;;;;;2.85;2.65;;;;;;;24.04;50.29;100441.06;5059174;28;20024;-22
2022/06/22 08:55:37;;;;;;;3.10;2.83;;;;;;;24.15;50.24;100445.72;5045490;28;20514;-22
2022/06/22 08:58:26;;;;;;;3.13;2.80;;;;;;;24.25;49.38;100435.16;5044831;28;20024;-23
2022/06/22 09:01:02;;;;;;;2.95;2.75;;;;;;;24.36;48.68;100450.56;5064353;28;20020;-22
2022/06/22 09:03:41;;;;;;;3.08;2.65;;;;;;;24.45;49.79;100439.09;5044556;28;20017;-23
2022/06/22 09:06:25;;;;;;;3.03;2.72;;;;;;;24.61;49.01;100451.50;5044323;28;20025;-23
2022/06/22 09:09:12;;;;;;;2.80;2.60;;;;;;;24.69;48.50;100443.72;5061588;28;20114;-22
2022/06/22 09:11:47;;;;;;;3.38;2.63;;;;;;;24.83;49.36;100453.50;5064610;28;20025;-23
2022/06/22 09:14:58;;;;;;;3.30;3.00;;;;;;;25.00;49.40;100446.00;5064452;28;20032;-23
2022/06/22 09:17:23;;;;;;;;;;;;;;;25.05;48.13;100457.34;5019414;28;20519;-23
2022/06/22 09:20:09;;;;;;;2.63;2.27;;;;;;;25.17;48.52;100460.94;5066875;28;19956;-23
2022/06/22 09:22:40;;;;;;;2.95;2.75;;;;;;;25.22;48.25;100461.50;5038017;28;20036;-23
2022/06/22 09:25:08;;;;;;;5.63;3.47;;;;;;;25.32;47.99;100466.19;5057650;28;20028;-23
2022/06/22 09:27:52;;;;;;;2.45;2.25;;;;;;;25.40;48.56;100458.34;5040611;28;20472;-23
2022/06/22 09:30:43;;;;;;;3.40;2.70;;;;;;;25.53;48.27;100452.88;5058457;28;20028;-23
2022/06/22 09:33:27;;;;;;;;;;;;;;;25.65;48.45;100461.94;5046082;28;20021;-23
2022/06/22 09:36:01;;;;;;;2.65;2.45;;;;;;;25.74;47.21;100472.00;5046782;28;19948;-23
2022/06/22 09:38:54;;;;;;;3.08;2.58;;;;;;;25.81;46.87;100482.34;5063883;28;20082;-23
2022/06/22 09:41:29;;;;;;;2.45;2.22;;;;;;;25.86;46.09;100477.44;5064276;28;20039;-23
2022/06/22 09:44:14;;;;;;;4.07;3.03;;;;;;;25.98;45.87;100479.19;5046366;28;20025;-23
2022/06/22 09:46:58;;;;;;;1.90;1.67;;;;;;;26.16;47.22;100476.03;5031474;28;20036;-23
2022/06/22 09:49:35;;;;;;;1.85;1.75;;;;;;;26.26;46.23;100477.03;5066413;28;20055;-23
2022/06/22 09:52:12;;;;;;;2.00;1.90;;;;;;;26.31;45.96;100465.88;5051148;28;20029;-23
2022/06/22 09:58:07;;;;;;;3.10;1.55;;;;;;;26.60;46.93;100461.81;5067376;28;20424;-22
2022/06/22 10:00:55;;;;;;;3.67;2.30;;;;;;;26.63;45.60;100461.56;5035304;28;20107;-23
2022/06/22 10:03:39;;;;;;;1.98;1.88;;;;;;;26.68;45.63;100461.22;5066861;28;20028;-23
2022/06/22 10:06:17;;;;;;;1.92;1.80;;;;;;;26.76;44.92;100456.91;5065987;28;20016;-23
2022/06/22 10:08:54;;;;;;;2.63;2.40;;;;;;;26.87;44.81;100460.56;5066336;28;20052;-23
2022/06/22 10:11:26;;;;;;;1.67;1.58;;;;;;;26.95;44.75;100462.66;5064451;28;20032;-23
2022/06/22 10:14:10;;;;;;;2.78;2.20;;;;;;;27.02;45.18;100453.94;5062900;28;20032;-22
2022/06/22 10:16:47;;;;;;;1.80;1.70;;;;;;;27.06;43.11;100457.25;5063297;28;20114;-22
2022/06/22 10:19:36;;;;;;;1.80;1.55;;;;;;;27.15;43.71;100469.16;5060498;28;20040;-22
2022/06/22 10:22:22;;;;;;;2.38;1.75;;;;;;;27.29;43.88;100468.00;5047213;28;20016;-22
2022/06/22 10:25:06;;;;;;;1.60;1.50;;;;;;;27.39;43.82;100462.66;5065846;28;20032;-22
2022/06/22 10:27:46;;;;;;;2.08;1.75;;;;;;;27.44;42.71;100454.16;5062930;28;20025;-22
2022/06/22 10:30:17;;;;;;;4.40;2.10;;;;;;;27.54;43.89;100455.94;5063203;28;20025;-22
2022/06/22 10:32:57;;;;;;;2.80;2.03;;;;;;;27.73;44.07;100465.25;5044814;28;20403;-22
2022/06/22 10:35:22;;;;;;;1.67;1.58;;;;;;;27.81;43.98;100461.91;5044075;28;20027;-22
2022/06/22 10:38:11;;;;;;;3.13;1.83;;;;;;;27.87;43.89;100466.75;5047188;28;20037;-22
2022/06/22 10:47:13;;;;;;;2.25;1.60;;;;;;;28.05;42.07;100468.88;5066293;28;20031;-22
2022/06/22 10:50:19;;;;;;;2.80;1.70;;;;;;;28.13;42.37;100468.19;5055884;28;20036;-22
2022/06/22 10:53:03;;;;;;;3.90;1.90;;;;;;;28.16;42.47;100465.22;5038401;28;20036;-22
2022/06/22 10:55:44;;;;;;;3.28;2.38;;;;;;;28.22;40.65;100461.97;5059796;28;20009;-22
2022/06/22 10:58:22;;;;;;;2.17;1.98;;;;;;;28.26;40.41;100460.72;5030765;28;20025;-22
2022/06/22 11:01:06;;;;;;;3.83;1.73;;;;;;;28.28;40.30;100466.88;5062222;28;20040;-22
2022/06/22 11:04:03;;;;;;;2.15;1.83;;;;;;;28.35;40.60;100459.09;5043931;28;20029;-22
2022/06/22 11:06:50;;;;;;;2.05;1.92;;;;;;;28.46;40.33;100462.66;5060842;28;20029;-22
2022/06/22 11:09:43;;;;;;;3.05;1.75;;;;;;;28.50;39.77;100458.69;5066051;28;20267;-22
2022/06/22 11:12:42;;;;;;;2.05;1.95;;;;;;;28.51;39.34;100463.97;5059126;28;20017;-22
2022/06/22 11:15:23;;;;;;;2.20;1.83;;;;;;;28.63;39.85;100458.44;5063355;28;20028;-22
2022/06/22 11:18:11;;;;;;;2.63;1.90;;;;;;;28.68;40.17;100454.34;5046369;28;20033;-21
2022/06/22 11:20:53;;;;;;;3.25;2.10;;;;;;;28.73;39.41;100462.06;5048367;28;20032;-22
2022/06/22 11:23:34;;;;;;;2.33;2.17;;;;;;;28.75;38.81;100470.94;5063821;28;20016;-22
2022/06/22 11:32:50;;;;;;;2.33;1.65;;;;;;;28.95;38.98;100460.16;5063919;28;20455;-22
2022/06/22 11:35:21;;;;;;;2.53;1.85;;;;;;;28.99;38.37;100461.59;5048555;28;20012;-22
2022/06/22 11:38:02;;;;;;;1.98;1.88;;;;;;;28.99;37.95;100466.16;5062493;28;20159;-22
2022/06/22 11:40:49;;;;;;;2.13;2.03;;;;;;;29.06;38.03;100470.03;5046838;28;20081;-22
2022/06/22 11:43:23;;;;;;;2.35;1.70;;;;;;;29.13;37.91;100464.88;5048427;28;20025;-22
2022/06/22 11:45:54;;;;;;;2.08;1.90;;;;;;;29.10;37.24;100460.59;5066663;28;20082;-22
2022/06/22 11:48:47;;;;;;;2.10;1.80;;;;;;;29.17;37.14;100463.59;5066568;28;20025;-22
2022/06/22 11:51:31;;;;;;;2.75;1.70;;;;;;;29.14;37.10;100464.75;5064531;28;20108;-22
2022/06/22 11:54:07;;;;;;;1.70;1.60;;;;;;;29.22;37.42;100466.78;5065777;28;20029;-22
2022/06/22 11:56:56;;;;;;;2.10;1.90;;;;;;;29.30;37.40;100447.03;5066688;28;20913;-22
2022/06/22 11:59:42;;;;;;;1.85;1.75;;;;;;;29.33;37.25;100453.06;5065761;28;20115;-22
2022/06/22 12:02:13;;;;;;;2.60;2.22;;;;;;;29.39;37.62;100448.91;5057902;28;20631;-22
2022/06/22 12:05:01;;;;;;;1.70;1.60;;;;;;;29.47;37.41;100448.19;5056113;28;20036;-22
2022/06/22 12:07:48;;;;;;;2.85;1.60;;;;;;;29.47;37.08;100450.88;5058142;28;20044;-22
2022/06/22 12:10:36;;;;;;;2.92;1.80;;;;;;;29.53;37.25;100444.94;5065089;28;20024;-22
2022/06/22 12:13:11;;;;;;;2.67;1.88;;;;;;;29.60;37.21;100442.47;5042651;28;20040;-21
2022/06/22 12:15:46;;;;;;;2.45;1.70;;;;;;;29.64;37.14;100440.34;5060055;28;20111;-21
2022/06/22 12:18:56;;;;;;;1.55;1.45;;;;;;;29.65;37.14;100439.34;5060359;28;20027;-21
2022/06/22 12:21:33;;;;;;;4.07;2.20;;;;;;;29.69;36.95;100440.75;4987504;28;20067;-22
2022/06/22 12:24:07;;;;;;;1.95;1.85;;;;;;;29.70;36.89;100439.75;5060815;28;20028;-22
2022/06/22 12:27:05;;;;;;;2.25;2.00;;;;;;;29.74;36.97;100422.16;5046452;28;20029;-22
2022/06/22 12:30:03;;;;;;;3.70;2.10;;;;;;;29.76;36.92;100427.44;5039297;28;20144;-22
2022/06/22 12:32:47;;;;;;;3.10;2.00;;;;;;;29.81;37.17;100433.31;4978864;28;20041;-22
2022/06/22 12:35:40;;;;;;;2.83;1.95;;;;;;;29.85;36.80;100429.28;5059421;28;20020;-21